Time;durP1;ratioP1;P1;durP2;ratioP2;P2;SDS_P1;SDS_P2;PMS_P1;PMS_P2;Temp;Humidity;BMP_temperature;BMP_pressure;BME280_temperature;BME280_humidity;BME280_pressure;Samples;Min_cycle;Max_cycle;Signal;HPM_P1;HPM_P2
2023/05/14 00:00:25;;;;;;;7.32;5.82;;;12.40;99.90;;;;;;5110574;28;20075;-81
2023/05/14 00:02:51;;;;;;;13.90;6.28;;;12.20;99.90;;;;;;5111538;28;20159;-79
2023/05/14 00:05:17;;;;;;;11.68;5.72;;;14.30;99.90;;;;;;5094503;28;20048;-81
2023/05/14 00:07:42;;;;;;;7.55;5.40;;;12.50;99.90;;;;;;5094163;28;20118;-80
2023/05/14 00:10:08;;;;;;;10.68;5.82;;;12.40;99.90;;;;;;5096485;28;20085;-81
2023/05/14 00:12:34;;;;;;;13.43;5.72;;;12.10;99.90;;;;;;5096103;28;20135;-80
2023/05/14 00:15:00;;;;;;;9.35;5.65;;;13.80;99.90;;;;;;5110567;28;20156;-81
2023/05/14 00:17:25;;;;;;;9.68;5.80;;;12.30;99.90;;;;;;5093797;28;20043;-81
2023/05/14 00:19:51;;;;;;;9.00;6.43;;;12.20;99.90;;;;;;5112145;27;20046;-81
2023/05/14 00:22:17;;;;;;;9.57;5.50;;;13.80;99.90;;;;;;5115176;27;20044;-81
2023/05/14 00:24:42;;;;;;;13.85;5.60;;;13.10;99.90;;;;;;5093339;28;20414;-81
2023/05/14 00:27:08;;;;;;;9.88;5.65;;;12.30;99.90;;;;;;5110059;28;20031;-80
2023/05/14 00:29:34;;;;;;;10.57;5.82;;;12.20;99.90;;;;;;5111865;28;20065;-81
2023/05/14 00:32:02;;;;;;;13.65;5.45;;;13.60;99.90;;;;;;5110657;28;20036;-82
2023/05/14 00:34:28;;;;;;;10.85;5.72;;;12.10;99.90;;;;;;5092925;28;20044;-81
2023/05/14 00:36:53;;;;;;;11.32;5.88;;;13.30;99.90;;;;;;5110519;28;20039;-81
2023/05/14 00:39:19;;;;;;;10.95;5.03;;;13.70;99.90;;;;;;5110297;28;20044;-80
2023/05/14 00:41:45;;;;;;;12.40;5.50;;;12.00;99.90;;;;;;5111423;28;20479;-81
2023/05/14 00:44:10;;;;;;;10.45;5.68;;;12.00;99.90;;;;;;5108395;28;20081;-81
2023/05/14 00:46:36;;;;;;;14.07;5.35;;;12.00;99.90;;;;;;5092445;28;20055;-81
2023/05/14 00:49:02;;;;;;;9.13;5.55;;;12.00;99.90;;;;;;5108512;28;20044;-81
2023/05/14 00:51:28;;;;;;;7.78;5.35;;;13.10;99.90;;;;;;5109777;28;20043;-81
2023/05/14 00:53:54;;;;;;;9.68;5.68;;;12.00;99.90;;;;;;5092573;28;20066;-80
2023/05/14 00:56:20;;;;;;;9.05;5.53;;;13.30;99.90;;;;;;5108698;28;20449;-80
2023/05/14 00:58:45;;;;;;;8.07;5.70;;;11.90;99.90;;;;;;5092843;28;20043;-81
2023/05/14 01:01:13;;;;;;;10.93;5.88;;;12.30;99.90;;;;;;5109778;28;20043;-80
2023/05/14 01:03:40;;;;;;;6.85;5.50;;;13.90;99.90;;;;;;5110615;28;20074;-81
2023/05/14 01:06:17;;;;;;;10.23;5.65;;;11.80;99.90;;;;;;5109494;28;20100;-81
2023/05/14 01:08:56;;;;;;;9.60;5.80;;;11.80;99.90;;;;;;5092777;28;20093;-80
2023/05/14 01:11:30;;;;;;;10.93;5.50;;;14.20;99.90;;;;;;5085250;28;20562;-80
2023/05/14 01:13:59;;;;;;;9.48;5.32;;;11.70;99.90;;;;;;5093217;28;20047;-80
2023/05/14 01:16:27;;;;;;;10.43;5.90;;;11.50;99.90;;;;;;5091574;28;20529;-81
2023/05/14 01:18:55;;;;;;;9.10;4.97;;;11.90;99.90;;;;;;5093168;28;20042;-81
2023/05/14 01:21:37;;;;;;;8.32;5.32;;;11.80;99.90;;;;;;5111079;28;20530;-81
2023/05/14 01:24:03;;;;;;;9.18;5.30;;;11.80;99.90;;;;;;5108648;28;20059;-80
2023/05/14 01:26:30;;;;;;;13.88;5.07;;;11.80;99.90;;;;;;5110701;28;20093;-80
2023/05/14 01:29:25;;;;;;;7.43;4.57;;;11.80;99.90;;;;;;5109367;28;20487;-81
2023/05/14 01:31:54;;;;;;;12.02;5.32;;;11.80;99.90;;;;;;5109067;28;20062;-81
2023/05/14 01:34:23;;;;;;;7.32;5.00;;;13.20;99.90;;;;;;5108615;28;20043;-80
2023/05/14 01:36:50;;;;;;;9.93;4.80;;;10.90;99.90;;;;;;5109411;28;20051;-81
2023/05/14 01:39:16;;;;;;;8.63;5.00;;;10.20;99.90;;;;;;5091247;28;20043;-81
2023/05/14 01:41:43;;;;;;;12.18;5.05;;;11.70;99.90;;;;;;5110358;28;20039;-80
2023/05/14 01:44:09;;;;;;;8.52;4.82;;;11.70;99.90;;;;;;5091663;28;20051;-81
2023/05/14 01:46:34;;;;;;;13.65;4.95;;;11.70;99.90;;;;;;5108117;28;20055;-81
2023/05/14 01:49:00;;;;;;;9.50;4.40;;;11.80;99.90;;;;;;5108415;28;20035;-80
2023/05/14 01:51:26;;;;;;;7.35;4.88;;;13.40;99.90;;;;;;5109137;28;20044;-80
2023/05/14 01:53:51;;;;;;;7.97;5.07;;;13.30;99.90;;;;;;5108325;28;20407;-80
2023/05/14 01:56:22;;;;;;;8.82;4.80;;;11.70;99.90;;;;;;5091826;28;20050;-80
2023/05/14 01:58:48;;;;;;;7.85;4.93;;;11.60;99.90;;;;;;5107325;28;20039;-81
2023/05/14 02:01:14;;;;;;;12.38;5.97;;;13.40;99.90;;;;;;5128863;27;20088;-80
2023/05/14 02:03:40;;;;;;;8.88;5.80;;;11.50;99.90;;;;;;5114414;28;20054;-81
2023/05/14 02:06:05;;;;;;;10.18;6.57;;;13.00;99.90;;;;;;5109911;28;20122;-80
2023/05/14 02:08:31;;;;;;;11.15;6.75;;;11.40;99.90;;;;;;5092192;28;20062;-80
2023/05/14 02:10:58;;;;;;;10.93;6.88;;;12.30;99.90;;;;;;5089598;28;20074;-80
2023/05/14 02:13:25;;;;;;;12.20;7.18;;;11.40;99.90;;;;;;5114916;27;20052;-80
2023/05/14 02:15:51;;;;;;;11.73;7.57;;;13.40;99.90;;;;;;5107476;28;20055;-80
2023/05/14 02:18:17;;;;;;;10.82;6.78;;;11.30;99.90;;;;;;5091405;28;20044;-81
2023/05/14 02:20:43;;;;;;;11.00;6.95;;;11.40;99.90;;;;;;5090712;28;20139;-81
2023/05/14 02:23:08;;;;;;;15.07;7.25;;;11.40;99.90;;;;;;5090744;28;20099;-81
2023/05/14 02:25:34;;;;;;;9.88;6.65;;;11.40;99.90;;;;;;5091168;28;20078;-80
2023/05/14 02:28:00;;;;;;;10.35;6.43;;;11.40;99.90;;;;;;5107399;28;20036;-81
2023/05/14 02:30:25;;;;;;;12.05;6.90;;;12.10;99.90;;;;;;5091183;28;20044;-81
2023/05/14 02:32:51;;;;;;;16.58;7.10;;;13.00;99.90;;;;;;5108806;28;20085;-80
2023/05/14 02:35:17;;;;;;;13.18;6.55;;;12.10;99.90;;;;;;5090397;28;20040;-81
2023/05/14 02:37:42;;;;;;;16.08;7.47;;;11.40;99.90;;;;;;5091197;28;20085;-81
2023/05/14 02:40:08;;;;;;;12.40;7.35;;;12.20;99.90;;;;;;5107901;28;20074;-81
2023/05/14 02:42:34;;;;;;;18.30;7.80;;;11.40;99.90;;;;;;5090282;28;20062;-81
2023/05/14 02:45:00;;;;;;;10.85;6.80;;;12.60;99.90;;;;;;5073955;28;20040;-81
2023/05/14 02:47:25;;;;;;;12.23;7.03;;;11.40;99.90;;;;;;5091084;28;20137;-82
2023/05/14 02:49:51;;;;;;;11.30;6.95;;;13.40;99.90;;;;;;5107894;28;20052;-80
2023/05/14 02:52:16;;;;;;;14.63;6.18;;;11.30;99.90;;;;;;5091346;28;20371;-81
2023/05/14 02:54:42;;;;;;;12.75;6.68;;;12.40;99.90;;;;;;5107216;28;20379;-80
2023/05/14 02:57:08;;;;;;;14.05;6.82;;;12.20;99.90;;;;;;5106738;28;20104;-80
2023/05/14 02:59:33;;;;;;;13.00;6.60;;;11.80;99.90;;;;;;5107736;28;20109;-81
2023/05/14 03:01:59;;;;;;;10.93;6.30;;;12.20;99.90;;;;;;5090028;28;20047;-81
2023/05/14 03:04:25;;;;;;;12.43;6.72;;;11.30;99.90;;;;;;5107980;28;20119;-81
2023/05/14 03:06:50;;;;;;;9.00;6.38;;;11.60;99.90;;;;;;5107777;28;20043;-81
2023/05/14 03:09:16;;;;;;;12.35;5.78;;;12.60;99.90;;;;;;5090345;28;20081;-81
2023/05/14 03:11:42;;;;;;;15.05;6.72;;;13.60;99.90;;;;;;5107672;28;20519;-81
2023/05/14 03:14:07;;;;;;;12.05;5.80;;;13.20;99.90;;;;;;5107148;28;20035;-81
2023/05/14 03:16:33;;;;;;;14.77;6.78;;;12.40;99.90;;;;;;5108058;28;20043;-81
2023/05/14 03:18:58;;;;;;;15.43;6.60;;;11.40;99.90;;;;;;5108548;28;20040;-81
2023/05/14 03:21:24;;;;;;;14.13;6.53;;;11.40;99.90;;;;;;5108063;28;20089;-81
2023/05/14 03:23:52;;;;;;;14.52;6.93;;;13.20;99.90;;;;;;5090454;28;20036;-81
2023/05/14 03:26:20;;;;;;;15.60;7.00;;;13.40;99.90;;;;;;5090210;28;20043;-81
2023/05/14 03:28:46;;;;;;;12.85;7.45;;;13.00;99.90;;;;;;5090719;28;20035;-82
2023/05/14 03:31:11;;;;;;;12.27;6.85;;;11.40;99.90;;;;;;5106375;28;20048;-81
2023/05/14 03:33:37;;;;;;;16.05;8.70;;;11.40;99.90;;;;;;5107512;28;20042;-80
2023/05/14 03:36:04;;;;;;;16.90;8.35;;;13.60;99.90;;;;;;5090043;28;20483;-80
2023/05/14 03:38:32;;;;;;;14.88;8.05;;;11.40;99.90;;;;;;5107044;28;20092;-81
2023/05/14 03:40:58;;;;;;;16.33;8.85;;;11.30;99.90;;;;;;5090483;28;20479;-80
2023/05/14 03:43:24;;;;;;;18.42;9.27;;;12.60;99.90;;;;;;5107360;28;20039;-80
2023/05/14 03:45:51;;;;;;;17.42;9.48;;;13.00;99.90;;;;;;5113241;28;20040;-81
2023/05/14 03:48:18;;;;;;;15.23;8.90;;;13.20;99.90;;;;;;5091755;28;20097;-79
2023/05/14 03:50:44;;;;;;;14.35;9.38;;;11.30;99.90;;;;;;5090944;28;20126;-81
2023/05/14 03:53:09;;;;;;;18.67;9.50;;;12.30;99.90;;;;;;5107804;28;20032;-80
2023/05/14 03:55:35;;;;;;;16.85;9.48;;;12.00;99.90;;;;;;5092653;28;20676;-80
2023/05/14 03:58:01;;;;;;;19.23;10.43;;;13.10;99.90;;;;;;5093089;28;20177;-81
2023/05/14 04:00:28;;;;;;;20.55;10.60;;;12.20;99.90;;;;;;5090460;28;20118;-81
2023/05/14 04:02:54;;;;;;;18.92;10.75;;;11.20;99.90;;;;;;5090403;28;20135;-81
2023/05/14 04:05:20;;;;;;;17.35;9.45;;;9.60;99.90;;;;;;5072925;28;20170;-81
2023/05/14 04:07:45;;;;;;;20.70;10.48;;;11.10;99.90;;;;;;5090300;28;20093;-82
2023/05/14 04:10:12;;;;;;;18.13;10.30;;;11.10;99.90;;;;;;5106963;28;20173;-80
2023/05/14 04:12:38;;;;;;;13.02;8.57;;;11.10;99.90;;;;;;5106674;28;20042;-82
2023/05/14 04:15:05;;;;;;;16.10;9.85;;;11.10;99.90;;;;;;5089697;28;20047;-80
2023/05/14 04:17:31;;;;;;;18.00;9.15;;;11.10;99.90;;;;;;5089884;28;20046;-80
2023/05/14 04:19:58;;;;;;;18.73;9.07;;;12.20;99.90;;;;;;5106413;28;20027;-80
2023/05/14 04:22:23;;;;;;;18.13;8.05;;;11.10;99.90;;;;;;5082627;28;20046;-81
2023/05/14 04:24:52;;;;;;;17.30;8.25;;;11.10;99.90;;;;;;5110991;28;20555;-81
2023/05/14 04:27:22;;;;;;;17.95;7.80;;;11.10;99.90;;;;;;5092259;28;20052;-82
2023/05/14 04:29:49;;;;;;;14.85;7.32;;;13.20;99.90;;;;;;5110105;28;20092;-82
2023/05/14 04:32:15;;;;;;;16.50;7.47;;;11.30;99.90;;;;;;5109768;28;20195;-81
2023/05/14 04:34:40;;;;;;;14.35;7.13;;;11.10;99.90;;;;;;5112366;28;20081;-81
2023/05/14 04:37:06;;;;;;;18.35;7.60;;;12.10;99.90;;;;;;5120106;27;20067;-82
2023/05/14 04:39:35;;;;;;;17.05;6.10;;;11.10;99.90;;;;;;5110092;28;20039;-82
2023/05/14 04:42:01;;;;;;;17.52;7.20;;;13.10;99.90;;;;;;5111198;28;20061;-81
2023/05/14 04:44:26;;;;;;;15.45;7.10;;;12.90;99.90;;;;;;5092885;28;20047;-82
2023/05/14 04:46:54;;;;;;;13.98;6.15;;;12.00;99.90;;;;;;5109395;28;20043;-81
2023/05/14 04:49:20;;;;;;;16.58;6.43;;;12.50;99.90;;;;;;5109415;28;20051;-79
2023/05/14 04:51:46;;;;;;;13.10;5.47;;;12.60;99.90;;;;;;5111699;27;20495;-79
2023/05/14 04:54:12;;;;;;;16.23;6.00;;;12.90;99.90;;;;;;5093062;28;20066;-80
2023/05/14 04:56:38;;;;;;;11.20;5.93;;;11.20;99.90;;;;;;5109196;28;20062;-80
2023/05/14 04:59:04;;;;;;;15.65;7.15;;;11.20;99.90;;;;;;5111155;28;20092;-80
2023/05/14 05:01:30;;;;;;;16.65;6.57;;;11.20;99.90;;;;;;5092722;28;20035;-80
2023/05/14 05:03:56;;;;;;;15.15;5.75;;;11.20;99.90;;;;;;5110469;28;20540;-79
2023/05/14 05:06:22;;;;;;;16.35;6.68;;;13.20;99.90;;;;;;5093233;28;20035;-80
2023/05/14 05:08:48;;;;;;;16.83;5.93;;;12.70;99.90;;;;;;5092243;28;20479;-81
2023/05/14 05:11:14;;;;;;;18.48;6.45;;;12.40;99.90;;;;;;5109689;28;20126;-79
2023/05/14 05:13:40;;;;;;;15.77;6.40;;;10.20;99.90;;;;;;5109425;28;20054;-80
2023/05/14 05:16:06;;;;;;;15.65;6.70;;;11.40;99.90;;;;;;5108217;28;20054;-81
2023/05/14 05:18:31;;;;;;;16.98;6.82;;;11.40;99.90;;;;;;5092424;28;20035;-80
2023/05/14 05:20:57;;;;;;;20.33;6.93;;;11.50;99.90;;;;;;5110939;28;20125;-79
2023/05/14 05:23:23;;;;;;;18.88;6.95;;;13.20;99.90;;;;;;5110348;28;20078;-82
2023/05/14 05:25:49;;;;;;;18.52;6.65;;;13.30;99.90;;;;;;5109626;28;20705;-81
2023/05/14 05:28:15;;;;;;;18.50;7.35;;;11.50;99.90;;;;;;5111078;28;20052;-81
2023/05/14 05:30:41;;;;;;;24.17;7.78;;;13.50;99.90;;;;;;5108632;28;20078;-82
2023/05/14 05:33:06;;;;;;;20.85;7.93;;;13.00;99.90;;;;;;5109307;28;20386;-79
2023/05/14 05:35:32;;;;;;;20.30;8.23;;;13.00;99.90;;;;;;5094405;28;20191;-79
2023/05/14 05:37:59;;;;;;;22.67;10.45;;;12.40;99.90;;;;;;5110509;28;20513;-82
2023/05/14 05:40:24;;;;;;;19.30;8.13;;;11.60;99.90;;;;;;5092002;28;20043;-80
2023/05/14 05:42:50;;;;;;;18.27;7.60;;;11.60;99.90;;;;;;5092461;28;20038;-80
2023/05/14 05:45:16;;;;;;;19.42;7.88;;;11.70;99.90;;;;;;5110884;28;20135;-81
2023/05/14 05:47:42;;;;;;;25.00;8.18;;;12.10;99.90;;;;;;5094285;28;20646;-80
2023/05/14 05:50:14;;;;;;;23.45;8.82;;;13.20;99.90;;;;;;5117567;28;20055;-78
2023/05/14 05:52:40;;;;;;;18.05;8.57;;;11.70;99.90;;;;;;5079781;28;20035;-80
2023/05/14 05:55:07;;;;;;;19.63;7.05;;;11.50;99.90;;;;;;5112576;28;20407;-82
2023/05/14 05:57:32;;;;;;;14.25;7.40;;;11.80;99.90;;;;;;5103112;28;20063;-80
2023/05/14 05:59:58;;;;;;;22.58;8.05;;;11.80;99.90;;;;;;5093112;28;20657;-80
2023/05/14 06:02:25;;;;;;;15.48;8.20;;;12.00;99.90;;;;;;5094544;28;20123;-80
2023/05/14 06:04:51;;;;;;;16.73;7.53;;;14.20;99.90;;;;;;5110882;28;20386;-82
2023/05/14 06:07:17;;;;;;;36.97;22.40;;;12.00;99.90;;;;;;5093670;28;20557;-82
2023/05/14 06:09:44;;;;;;;26.13;11.93;;;12.10;99.90;;;;;;5095431;28;20032;-79
2023/05/14 06:12:14;;;;;;;21.17;9.05;;;12.10;99.90;;;;;;5113338;28;20096;-80
2023/05/14 06:14:40;;;;;;;18.23;7.32;;;12.20;99.90;;;;;;5109792;28;20052;-80
2023/05/14 06:17:07;;;;;;;15.55;6.88;;;14.10;99.90;;;;;;5109598;28;20048;-81
2023/05/14 06:19:34;;;;;;;16.60;6.85;;;12.30;99.90;;;;;;5113373;28;20098;-81
2023/05/14 06:22:00;;;;;;;14.85;6.45;;;14.20;99.90;;;;;;5116140;28;20070;-81
2023/05/14 06:24:27;;;;;;;15.30;6.38;;;10.70;99.90;;;;;;5116473;28;20051;-80
2023/05/14 06:27:16;;;;;;;15.93;5.68;;;12.50;99.90;;;;;;5069494;28;20035;-80
2023/05/14 06:29:43;;;;;;;13.50;5.88;;;12.60;99.90;;;;;;5090392;28;20044;-81
2023/05/14 06:32:09;;;;;;;14.55;6.38;;;12.70;99.90;;;;;;5109392;28;20479;-80
2023/05/14 06:34:34;;;;;;;15.77;6.38;;;12.80;99.90;;;;;;5097765;28;20043;-80
2023/05/14 06:37:02;;;;;;;18.80;6.93;;;15.10;99.90;;;;;;5120533;28;20055;-79
2023/05/14 06:39:28;;;;;;;16.45;6.38;;;13.30;99.90;;;;;;5107936;28;20039;-80
2023/05/14 06:41:54;;;;;;;14.05;5.97;;;13.00;99.90;;;;;;5107147;28;20449;-82
2023/05/14 06:44:19;;;;;;;20.58;6.57;;;12.90;99.90;;;;;;5090519;28;20050;-79
2023/05/14 06:46:45;;;;;;;11.40;5.25;;;13.10;99.90;;;;;;5108273;28;20125;-80
2023/05/14 06:49:11;;;;;;;14.23;5.75;;;13.30;99.90;;;;;;5107913;28;20038;-79
2023/05/14 06:51:37;;;;;;;16.23;6.07;;;14.00;99.90;;;;;;5108383;28;20054;-80
2023/05/14 06:54:03;;;;;;;17.48;5.70;;;14.20;99.90;;;;;;5107379;28;20043;-79
2023/05/14 06:56:29;;;;;;;12.02;6.05;;;13.20;99.90;;;;;;5089487;28;20055;-79
2023/05/14 06:58:55;;;;;;;13.10;5.65;;;15.10;99.90;;;;;;5108601;28;20067;-78
2023/05/14 07:01:20;;;;;;;15.48;6.10;;;15.10;99.90;;;;;;5089882;28;20043;-79
2023/05/14 07:03:46;;;;;;;12.43;5.55;;;13.40;99.90;;;;;;5109619;28;20082;-80
2023/05/14 07:06:12;;;;;;;11.50;5.55;;;13.20;99.90;;;;;;5108585;28;20066;-79
2023/05/14 07:08:38;;;;;;;15.20;6.10;;;13.50;99.90;;;;;;5089426;28;20047;-79
2023/05/14 07:11:04;;;;;;;14.63;5.88;;;15.40;99.90;;;;;;5107167;28;20072;-82
2023/05/14 07:13:32;;;;;;;19.23;6.20;;;13.50;99.90;;;;;;5107867;28;20043;-80
2023/05/14 07:15:58;;;;;;;16.42;6.18;;;14.00;99.90;;;;;;5105879;28;20127;-81
2023/05/14 07:18:23;;;;;;;15.02;5.82;;;13.60;99.90;;;;;;5107737;28;20483;-80
2023/05/14 07:20:49;;;;;;;20.67;11.48;;;13.60;99.90;;;;;;5108539;28;20068;-81
2023/05/14 07:23:19;;;;;;;13.50;6.35;;;13.60;99.90;;;;;;5108831;28;20164;-79
2023/05/14 07:25:45;;;;;;;18.30;10.73;;;13.60;99.90;;;;;;5106916;28;20067;-77
2023/05/14 07:28:11;;;;;;;11.10;6.15;;;15.60;99.90;;;;;;5106997;28;20035;-79
2023/05/14 07:30:36;;;;;;;20.90;7.07;;;15.40;99.90;;;;;;5135024;27;20043;-79
2023/05/14 07:33:02;;;;;;;13.20;6.10;;;14.90;99.90;;;;;;5107068;28;20039;-79
2023/05/14 07:35:28;;;;;;;15.25;6.53;;;13.80;99.90;;;;;;5089559;28;20085;-78
2023/05/14 07:37:53;;;;;;;16.30;7.53;;;13.80;99.90;;;;;;5090798;28;20031;-79
2023/05/14 07:40:19;;;;;;;13.68;5.65;;;14.70;99.90;;;;;;5111807;28;20039;-77
2023/05/14 07:42:45;;;;;;;16.98;6.43;;;14.40;99.90;;;;;;5108268;28;20054;-78
2023/05/14 07:45:10;;;;;;;11.95;6.50;;;15.40;99.90;;;;;;5088753;28;20379;-78
2023/05/14 07:47:36;;;;;;;11.80;6.20;;;13.90;99.90;;;;;;5106288;28;20127;-78
2023/05/14 07:50:02;;;;;;;14.73;5.75;;;14.10;99.90;;;;;;5107611;28;20630;-78
2023/05/14 07:52:28;;;;;;;22.65;11.20;;;14.00;99.90;;;;;;5133834;27;20051;-78
2023/05/14 07:54:53;;;;;;;13.60;8.18;;;14.70;99.90;;;;;;5106743;28;20043;-78
2023/05/14 07:57:19;;;;;;;18.55;6.88;;;14.20;99.90;;;;;;5107434;28;20118;-78
2023/05/14 07:59:46;;;;;;;14.40;5.95;;;15.20;99.90;;;;;;5110294;28;20031;-79
2023/05/14 08:02:12;;;;;;;16.20;6.40;;;16.20;99.90;;;;;;5112363;28;20067;-78
2023/05/14 08:04:38;;;;;;;13.80;6.22;;;14.40;99.90;;;;;;5109931;28;20518;-77
2023/05/14 08:07:07;;;;;;;11.82;6.60;;;14.50;99.90;;;;;;5111298;28;20106;-80
2023/05/14 08:09:33;;;;;;;14.95;6.43;;;14.60;99.90;;;;;;5111454;28;20047;-80
2023/05/14 08:11:59;;;;;;;14.70;6.07;;;13.70;99.90;;;;;;5110328;28;20406;-80
2023/05/14 08:14:25;;;;;;;16.55;6.22;;;16.50;99.90;;;;;;5110092;28;20108;-80
2023/05/14 08:16:51;;;;;;;8.75;4.85;;;15.00;99.90;;;;;;5110386;28;20429;-81
2023/05/14 08:19:17;;;;;;;16.00;5.47;;;15.80;99.90;;;;;;5110986;28;20047;-80
2023/05/14 08:21:43;;;;;;;15.35;5.40;;;15.00;99.90;;;;;;5110604;28;20066;-79
2023/05/14 08:24:08;;;;;;;27.60;8.23;;;15.00;99.90;;;;;;5109888;28;20502;-78
2023/05/14 08:26:34;;;;;;;15.15;5.35;;;15.00;99.90;;;;;;5092152;28;20092;-79
2023/05/14 08:29:00;;;;;;;25.60;7.05;;;15.10;99.90;;;;;;5111697;28;20118;-80
2023/05/14 08:31:25;;;;;;;14.88;5.30;;;15.10;99.90;;;;;;5110429;28;20466;-80
2023/05/14 08:33:51;;;;;;;18.27;6.20;;;16.10;99.90;;;;;;5111000;28;20577;-80
2023/05/14 08:36:17;;;;;;;16.23;6.32;;;15.20;99.90;;;;;;5111814;28;20058;-80
2023/05/14 08:38:44;;;;;;;18.70;7.35;;;15.30;99.90;;;;;;5112912;28;20099;-80
2023/05/14 08:41:11;;;;;;;15.75;7.97;;;15.50;99.90;;;;;;5110918;28;20090;-80
2023/05/14 08:44:02;;;;;;;17.95;7.15;;;15.30;99.90;;;;;;5112886;28;20035;-80
2023/05/14 08:46:29;;;;;;;24.85;7.53;;;15.30;99.90;;;;;;5091950;28;20040;-81
2023/05/14 08:48:59;;;;;;;16.55;6.57;;;15.30;99.90;;;;;;5110856;28;20703;-80
2023/05/14 08:51:26;;;;;;;14.52;6.97;;;17.20;99.90;;;;;;5108631;28;20036;-80
2023/05/14 08:53:52;;;;;;;15.55;5.90;;;15.40;99.90;;;;;;5111186;28;20070;-79
2023/05/14 08:56:18;;;;;;;16.88;5.32;;;15.40;99.90;;;;;;5111456;28;20495;-79
2023/05/14 08:58:44;;;;;;;14.10;6.72;;;16.00;99.90;;;;;;5110971;28;20091;-80
2023/05/14 09:01:10;;;;;;;18.63;6.35;;;15.50;99.90;;;;;;5114293;28;20040;-79
2023/05/14 09:03:36;;;;;;;17.02;10.68;;;15.50;99.90;;;;;;5112642;28;20483;-79
2023/05/14 09:06:04;;;;;;;13.00;6.78;;;17.00;99.90;;;;;;5111270;28;20092;-79
2023/05/14 09:08:30;;;;;;;20.25;7.47;;;15.50;99.90;;;;;;5116974;28;20148;-78
2023/05/14 09:10:56;;;;;;;16.48;6.28;;;15.60;99.90;;;;;;5121571;28;20067;-79
2023/05/14 09:13:21;;;;;;;15.23;5.65;;;15.90;99.90;;;;;;5111617;28;20040;-76
2023/05/14 09:15:49;;;;;;;14.95;5.38;;;17.20;99.90;;;;;;5111815;28;20051;-79
2023/05/14 09:18:16;;;;;;;14.57;6.57;;;15.70;99.90;;;;;;5110925;28;20120;-78
2023/05/14 09:20:42;;;;;;;17.48;6.38;;;15.70;99.90;;;;;;5111590;28;20410;-79
2023/05/14 09:23:07;;;;;;;15.13;5.78;;;15.80;99.90;;;;;;5111880;28;20044;-77
2023/05/14 09:25:33;;;;;;;13.80;6.13;;;15.80;99.90;;;;;;5114007;28;20043;-78
2023/05/14 09:28:04;;;;;;;13.95;6.40;;;16.40;99.90;;;;;;5115171;28;20044;-77
2023/05/14 09:30:30;;;;;;;15.88;5.35;;;15.90;99.90;;;;;;5118797;28;20083;-78
2023/05/14 09:32:56;;;;;;;11.85;5.53;;;15.80;99.90;;;;;;5112245;28;20127;-76
2023/05/14 09:35:23;;;;;;;11.90;6.25;;;16.00;99.90;;;;;;5109065;28;20187;-78
2023/05/14 09:37:53;;;;;;;14.95;6.97;;;16.10;99.90;;;;;;5110514;28;20039;-77
2023/05/14 09:40:21;;;;;;;15.68;6.25;;;16.20;99.90;;;;;;5111505;28;20501;-77
2023/05/14 09:42:48;;;;;;;12.20;5.93;;;16.40;99.90;;;;;;5110242;28;20050;-77
2023/05/14 09:45:14;;;;;;;13.43;5.88;;;16.30;99.90;;;;;;5106525;28;20051;-78
2023/05/14 09:47:40;;;;;;;19.67;6.43;;;16.30;99.90;;;;;;5110244;28;20100;-78
2023/05/14 09:50:08;;;;;;;15.75;6.15;;;16.30;99.90;;;;;;5091339;28;20043;-78
2023/05/14 09:52:34;;;;;;;14.10;7.38;;;16.50;99.90;;;;;;5089292;28;20035;-78
2023/05/14 09:55:00;;;;;;;13.90;6.00;;;16.50;99.90;;;;;;5092064;28;20047;-78
2023/05/14 09:57:26;;;;;;;19.50;6.97;;;16.60;99.90;;;;;;5109550;28;20048;-78
2023/05/14 09:59:52;;;;;;;14.20;6.60;;;16.50;99.90;;;;;;5108173;28;20118;-78
2023/05/14 10:02:44;;;;;;;16.23;7.07;;;17.10;99.90;;;;;;5109382;28;20040;-78
2023/05/14 10:05:12;;;;;;;15.45;6.25;;;16.70;99.90;;;;;;5106323;28;20051;-78
2023/05/14 10:07:45;;;;;;;12.70;6.40;;;16.90;99.90;;;;;;5112808;28;20067;-78
2023/05/14 10:10:15;;;;;;;10.20;5.50;;;18.10;99.90;;;;;;5111821;28;20127;-77
2023/05/14 10:12:44;;;;;;;13.93;6.53;;;17.10;99.90;;;;;;5111730;28;20092;-79
2023/05/14 10:15:18;;;;;;;13.43;5.70;;;17.20;99.90;;;;;;5108877;28;20047;-75
2023/05/14 10:17:57;;;;;;;14.15;6.50;;;17.30;99.90;;;;;;5111928;28;20146;-78
2023/05/14 10:20:24;;;;;;;14.10;6.50;;;17.40;99.90;;;;;;5106422;28;20092;-79
2023/05/14 10:22:51;;;;;;;11.07;5.90;;;17.40;99.90;;;;;;5103574;28;20082;-78
2023/05/14 10:25:17;;;;;;;13.40;5.65;;;17.90;99.90;;;;;;5107349;28;20115;-78
2023/05/14 10:27:44;;;;;;;11.88;6.97;;;17.30;99.90;;;;;;5111178;28;20045;-78
2023/05/14 10:30:11;;;;;;;26.73;16.77;;;17.80;99.90;;;;;;5111543;28;20118;-77
2023/05/14 10:32:37;;;;;;;11.68;6.35;;;17.70;99.90;;;;;;5110823;28;20044;-76
2023/05/14 10:35:19;;;;;;;12.60;6.28;;;17.80;99.90;;;;;;5091450;28;20122;-76
2023/05/14 10:37:45;;;;;;;14.98;6.00;;;17.80;99.90;;;;;;5110241;28;20542;-78
2023/05/14 10:40:12;;;;;;;13.55;5.97;;;19.30;99.90;;;;;;5107757;28;20039;-78
2023/05/14 10:42:42;;;;;;;12.00;5.93;;;17.80;99.90;;;;;;5107958;28;20040;-78
2023/05/14 10:45:13;;;;;;;17.83;6.40;;;19.10;99.90;;;;;;5109403;28;20088;-78
2023/05/14 10:47:44;;;;;;;13.10;5.78;;;18.10;99.90;;;;;;5107592;28;20455;-78
2023/05/14 10:50:13;;;;;;;14.02;7.10;;;18.40;99.90;;;;;;5110303;28;20375;-79
2023/05/14 10:52:43;;;;;;;12.38;6.05;;;20.00;99.90;;;;;;5109707;28;20040;-78
2023/05/14 10:55:13;;;;;;;13.10;5.82;;;18.50;99.90;;;;;;5106645;28;20043;-78
2023/05/14 10:57:40;;;;;;;15.98;9.52;;;18.80;99.90;;;;;;5109497;28;20071;-78
2023/05/14 11:00:09;;;;;;;10.40;5.57;;;18.60;99.90;;;;;;5109954;28;20110;-75
2023/05/14 11:02:41;;;;;;;7.80;5.38;;;18.70;99.90;;;;;;5111647;28;20071;-78
2023/05/14 11:05:16;;;;;;;11.07;5.38;;;18.70;99.90;;;;;;5109020;28;20035;-78
2023/05/14 11:07:43;;;;;;;10.50;4.53;;;19.10;99.90;;;;;;5107391;28;20044;-78
2023/05/14 11:10:14;;;;;;;9.25;5.18;;;18.80;99.90;;;;;;5110060;28;20501;-81
2023/05/14 11:12:46;;;;;;;13.00;6.38;;;18.90;99.90;;;;;;5115825;28;20099;-79
2023/05/14 11:15:14;;;;;;;9.23;5.45;;;19.00;99.90;;;;;;5096153;28;20086;-78
2023/05/14 11:17:41;;;;;;;9.35;5.45;;;19.20;99.90;;;;;;5115189;28;20059;-78
2023/05/14 11:20:08;;;;;;;11.65;5.13;;;19.30;99.90;;;;;;5101095;28;20672;-78
2023/05/14 11:22:36;;;;;;;9.63;4.72;;;19.40;99.90;;;;;;5110557;28;20506;-78
2023/05/14 11:25:05;;;;;;;12.20;4.50;;;19.60;99.90;;;;;;5108401;28;20057;-80
2023/05/14 11:27:33;;;;;;;16.00;4.80;;;19.80;99.90;;;;;;5074995;28;20097;-79
2023/05/14 11:29:59;;;;;;;8.32;4.88;;;20.30;99.90;;;;;;5108733;28;20517;-79
2023/05/14 11:32:26;;;;;;;9.32;4.53;;;20.00;99.90;;;;;;5097581;28;20035;-79
2023/05/14 11:34:52;;;;;;;10.05;4.90;;;20.10;99.90;;;;;;5119968;28;20149;-80
2023/05/14 11:37:18;;;;;;;10.48;4.50;;;20.50;99.90;;;;;;5102920;28;20104;-80
2023/05/14 11:39:49;;;;;;;10.02;5.68;;;21.40;99.90;;;;;;5126585;27;20036;-80
2023/05/14 11:42:18;;;;;;;11.75;5.30;;;20.50;99.90;;;;;;5115181;28;20063;-77
2023/05/14 11:44:46;;;;;;;13.38;4.55;;;20.60;99.90;;;;;;5111842;28;20040;-78
2023/05/14 11:47:12;;;;;;;8.00;4.38;;;21.50;99.90;;;;;;5112026;28;20063;-77
2023/05/14 11:49:38;;;;;;;9.57;4.35;;;20.80;99.90;;;;;;5144637;27;20483;-77
2023/05/14 11:52:05;;;;;;;9.68;4.53;;;21.00;99.90;;;;;;5110875;28;20043;-78
2023/05/14 11:54:32;;;;;;;10.05;5.35;;;21.10;99.90;;;;;;5112849;28;20043;-78
2023/05/14 11:57:00;;;;;;;9.98;5.07;;;21.10;99.90;;;;;;5109835;28;20562;-78
2023/05/14 11:59:35;;;;;;;9.82;5.28;;;21.10;99.90;;;;;;5111183;28;20555;-79
2023/05/14 12:02:03;;;;;;;10.52;5.30;;;21.30;99.90;;;;;;5093437;28;20446;-77
2023/05/14 12:04:30;;;;;;;11.57;4.18;;;21.50;99.90;;;;;;5110000;28;20250;-78
2023/05/14 12:06:58;;;;;;;8.57;4.10;;;21.70;99.90;;;;;;5111609;28;20047;-78
2023/05/14 12:09:24;;;;;;;6.40;4.30;;;21.90;99.90;;;;;;5093876;28;20123;-78
2023/05/14 12:11:50;;;;;;;7.85;4.97;;;22.00;99.90;;;;;;5092997;28;20035;-78
2023/05/14 12:14:22;;;;;;;6.88;3.65;;;22.40;99.90;;;;;;5110395;28;20051;-78
2023/05/14 12:16:48;;;;;;;10.10;4.40;;;22.20;99.90;;;;;;5111911;28;20114;-78
2023/05/14 12:19:16;;;;;;;42.78;5.93;;;22.20;99.90;;;;;;5111252;28;20031;-78
2023/05/14 12:21:43;;;;;;;11.75;5.05;;;22.80;99.90;;;;;;5111369;28;20097;-77
2023/05/14 12:24:13;;;;;;;780.20;116.05;;;22.20;99.90;;;;;;5111448;28;20142;-77
2023/05/14 12:26:42;;;;;;;13.88;4.68;;;22.20;99.90;;;;;;5107877;28;20084;-77
2023/05/14 12:29:12;;;;;;;5.97;4.38;;;22.20;99.90;;;;;;5092770;28;20035;-78
2023/05/14 12:31:47;;;;;;;10.38;4.32;;;22.30;99.90;;;;;;5107110;28;20039;-77
2023/05/14 12:34:13;;;;;;;8.02;4.00;;;22.30;99.90;;;;;;5109620;28;20035;-77
2023/05/14 12:36:39;;;;;;;6.40;4.35;;;22.20;99.90;;;;;;5109714;28;20047;-77